Aérodrome :
LOGIN :

S'inscrire | Disclaimer

   EN    FR    IT 

 










Légende :    VFR   VFR Marginal   IFR   IFR Intensif   IFR Très Intensif
Visi : 
Plafond : 
>= 8 km
>= 3000ft
5 à 8 km
1000 à 3000 ft
1500m à 5 km
500 à 1000 ft
800 à 1500m
200 à 500 ft
< 800m
< 200 ft
Symboles :   Orages  Brouillard  Fortes neiges  Fortes précipitations  Vent > 20 kt
SIGMETs :   Divers  Orages  Givrage  Turbulence  Onde Orograph.  Cendres Volcan.






- Altitude de l'aérodrome : 768 ft
- Code IATA : MXP


LIMC - Milano Malpensa

DERNIER METAR :
  • 172350Z 35003KT 3000 BR NSC M03/M04 Q1021 NOSIG

METARs EXPIRÉS :
  • 172320Z 35005KT 3000 BR NSC M02/M03 Q1020 NOSIG
  • 172250Z 36004KT 3000 BR NSC M03/M04 Q1020 NOSIG
  • 172220Z 01004KT 5000 BR NSC M03/M04 Q1020 NOSIG
  • 172150Z VRB02KT 5000 BR NSC M00/M02 Q1020 NOSIG
  • 172120Z 07003KT 5000 BR NSC 00/M01 Q1019 NOSIG

TAF TAF LIMC
Valide du 18 à 00h jusqu'au 19 à 06h UTC


172300Z 1800/1906 VRB04KT 3000 BR FEW050
TEMPO 1800/1807 0800 FZFG
BECMG 1807/1809 7000
BECMG 1818/1820 4000 BR
TEMPO 1900/1906 0500 FZFG



MET'MAP, la Météo Aéronautique d'un coup d'oeil ! - Copyright ORBIFLY Décembre 2007 - Disclaimer

ORBIFLY MET'MAP TEAM :

Programmation & Développement : Alexandra Zaïnal
Sur une idée originale de : Baudouin d'Aumeries
Assistance à la programmation : Marc-Olivier Méhu
Soutien technique & logistique : Manuel Goepfert

Contact : metmap@orbifly.com




SOURCES & CREDITS :

   NOAA